• Join FlightAware (Why Join?)
  • Login
  • US Flag 
06:10PM EST


 

Airport Tracker/Info


-or-


 

Live Flight TrackerFlight Track Log ✈ N250S ✈ 09-Mar-2014 ✈ KJAX - KLPR

Flight Track Log - Related Links

Times and Time Zones

All times are in EDT time to prevent confusion due to time zone crossing. See the N250S flight status page for this flight to view local times or setup timezone preferences in your user account.

Time Position Orientation Groundspeed Altitude Reporting Facility
EDT Latitude Longitude Course Direction KTS MPH feet Rate Location/Type
01:21PM 30.5031 -81.6992 341° North 114 131 600  Level Jacksonville Center
01:22PM 30.5200 -81.7256 307° West 146 168 1,300 960 Climbing Jacksonville Center
01:23PM 30.5392 -81.7542 308° West 155 178 2,100 1,080 Climbing Jacksonville Center
01:23PM 30.5517 -81.7683 316° Northwest 159 183 2,400 780 Climbing Jacksonville Center
01:24PM 30.5792 -81.7825 336° Northwest 185 213 2,900 480 Climbing Jacksonville Center
01:24PM 30.5981 -81.7944 331° Northwest 202 232 2,900 660 Level Jacksonville Center
01:25PM 30.6314 -81.8086 340° North 195 224 3,600 1,200 Climbing Jacksonville Center
01:25PM 30.6483 -81.8181 334° Northwest 176 203 4,200 1,200 Climbing Jacksonville Center
01:26PM 30.6756 -81.8250 348° North 177 204 4,800 960 Climbing Jacksonville Center
01:26PM 30.6986 -81.8369 336° Northwest 182 209 5,200 780 Climbing Jacksonville Center
01:27PM 30.8216 -81.8386 341° North  Level FlightAware Approximate
01:27PM 30.7258 -81.8439 348° North 187 215 5,600  Level Jacksonville Center
01:27PM 30.7550 -81.8603 334° Northwest 192 221 6,000 660 Climbing Jacksonville Center
01:28PM 30.7781 -81.8672 345° North 193 222 6,300 660 Climbing Jacksonville Center
01:28PM 30.8053 -81.8839 332° Northwest 191 220 6,700 600 Climbing Jacksonville Center
01:29PM 30.8264 -81.8911 344° North 193 222 6,900 540 Climbing Jacksonville Center
01:30PM 30.8744 -81.9075 344° North 203 234 7,500 720 Climbing Jacksonville Center
01:31PM 30.9289 -81.9214 348° North 198 228 8,400 720 Climbing Jacksonville Center
01:32PM 30.9811 -81.9378 345° North 198 228 9,000 660 Climbing Jacksonville Center
01:33PM 31.0356 -81.9542 346° North 198 228 9,800 720 Climbing Jacksonville Center
01:34PM 31.0900 -81.9658 350° North 198 228 10,500 720 Climbing Jacksonville Center
01:35PM 31.1506 -81.9678 358° North 203 234 11,300 780 Climbing Jacksonville Center
01:36PM 31.2047 -81.9719 356° North 203 234 12,100 840 Climbing Jacksonville Center
01:37PM 31.2653 -81.9689 North 198 228 13,000 780 Climbing Jacksonville Center
01:38PM 31.3217 -81.9514 15° North 198 228 13,700 840 Climbing Jacksonville Center
01:39PM 31.3864 -81.9386 10° North 198 228 14,700 840 Climbing Jacksonville Center
01:40PM 31.4425 -81.9233 13° North 206 237 15,400 600 Climbing Jacksonville Center
01:41PM 31.4947 -81.9156 North 212 244 15,900 600 Climbing Jacksonville Center
01:42PM 31.5614 -81.8978 13° North 217 250 16,700 660 Climbing Jacksonville Center
01:43PM 31.6156 -81.8875 North 217 250 17,300 600 Climbing Jacksonville Center
01:44PM 31.6822 -81.8697 13° North 217 250 17,900 540 Climbing Jacksonville Center
01:45PM 31.7428 -81.8567 10° North 217 250 18,400 540 Climbing Jacksonville Center
01:46PM 31.7989 -81.8464 North 217 250 19,000 300 Climbing Jacksonville Center
01:47PM 31.8719 -81.8283 12° North 232 267 19,100  Climbing Jacksonville Center
01:48PM 31.9406 -81.8153 North 244 281 19,100 -60 Level Jacksonville Center
01:49PM 31.9969 -81.8050 North 239 275 19,000 -60 Descending Jacksonville Center
01:50PM 32.0636 -81.7919 North 219 252 19,000  Level Jacksonville Center
01:51PM 32.1158 -81.7789 12° North 219 252 19,000  Level Jacksonville Center
01:52PM 32.1803 -81.7683 North 219 252 19,000  Level Jacksonville Center
01:53PM 32.2386 -81.7578 North 214 246 19,000  Level Jacksonville Center
01:54PM 32.2908 -81.7475 North 214 246 19,000  Level Jacksonville Center
01:55PM 32.3553 -81.7342 10° North 214 246 19,000  Level Jacksonville Center
01:56PM 32.4117 -81.7211 11° North 214 246 19,000  Level Jacksonville Center
01:57PM 32.4658 -81.7106 North 219 252 19,100  Climbing Jacksonville Center
01:58PM 32.5325 -81.6975 North 219 252 19,100  Level Jacksonville Center
01:59PM 32.5908 -81.6844 11° North 219 252 19,100 -60 Level Jacksonville Center
02:00PM 32.6511 -81.6689 12° North 219 252 19,000  Descending Jacksonville Center
02:01PM 32.7075 -81.6533 13° North 214 246 19,100  Climbing Jacksonville Center
02:02PM 32.7678 -81.6375 12° North 214 246 19,000  Descending Jacksonville Center
02:03PM 32.8283 -81.6244 10° North 220 253 19,100  Climbing Jacksonville Center
02:04PM 32.8867 -81.6111 11° North 220 253 19,100  Level Jacksonville Center
02:05PM 32.9431 -81.6153 356° North 215 247 19,100 -60 Level Jacksonville Center
02:06PM 33.0014 -81.6169 359° North 209 241 19,000 -60 Descending Jacksonville Center
02:07PM 33.0578 -81.6186 359° North 209 241 19,000  Level Jacksonville Center
02:08PM 33.1164 -81.6228 357° North 204 235 19,100  Climbing Jacksonville Center
02:09PM 33.1728 -81.6269 356° North 199 229 19,100  Level Jacksonville Center
02:10PM 33.2311 -81.6311 357° North 199 229 19,100 -60 Level Jacksonville Center
02:11PM 33.2856 -81.6328 359° North 199 229 19,000  Descending Jacksonville Center
02:12PM 33.3439 -81.6369 357° North 199 229 19,100  Climbing Jacksonville Center
02:13PM 33.3981 -81.6386 359° North 199 229 19,000  Descending Jacksonville Center
02:14PM 33.4567 -81.6453 355° North 199 229 19,100  Climbing Jacksonville Center
02:15PM 33.5111 -81.6469 359° North 199 229 19,000  Descending Jacksonville Center
02:16PM 33.5653 -81.6514 356° North 199 229 19,100  Climbing Jacksonville Center
02:17PM 33.6217 -81.6506 North 199 229 19,100  Level Jacksonville Center
02:18PM 33.6781 -81.6547 356° North 199 229 19,100  Level Jacksonville Center
02:19PM 33.7322 -81.6539 North 199 229 19,100  Level Jacksonville Center
02:20PM 33.7867 -81.6581 356° North 199 229 19,100  Level Jacksonville Center
02:21PM 33.8408 -81.6597 359° North 199 229 19,100  Level Jacksonville Center
02:22PM 33.8972 -81.6592 360° North 199 229 19,100  Level Jacksonville Center
02:24PM 33.9903 -81.6611 359° North 196 226 19,100  Level Atlanta Center
02:25PM 34.0447 -81.6647 357° North 196 226 19,100 -60 Level Atlanta Center
02:26PM 34.0989 -81.6656 359° North 196 226 19,000 -60 Descending Atlanta Center
02:27PM 34.1533 -81.6717 355° North 196 226 19,000  Level Atlanta Center
02:28PM 34.2078 -81.6753 357° North 196 226 19,000  Level Atlanta Center
02:29PM 34.2619 -81.6736 North 196 226 19,000  Level Atlanta Center
02:30PM 34.3247 -81.6769 357° North 196 226 19,000  Level Atlanta Center
02:31PM 34.3811 -81.6828 355° North 196 226 19,000  Level Atlanta Center
02:32PM 34.4353 -81.6839 359° North 196 226 19,000  Level Atlanta Center
02:33PM 34.4961 -81.6897 355° North 201 231 19,000  Level Atlanta Center
02:34PM 34.5525 -81.6983 353° North 201 231 19,000  Level Atlanta Center
02:35PM 34.6089 -81.7017 357° North 201 231 19,000  Level Atlanta Center
02:36PM 34.6656 -81.7178 347° North 201 231 19,000  Level Atlanta Center
02:37PM 34.7200 -81.7289 350° North 201 231 19,000  Level Atlanta Center
02:38PM 34.7744 -81.7350 355° North 201 231 19,000  Level Atlanta Center
02:39PM 34.8328 -81.7386 357° North 201 231 19,000  Level Atlanta Center
02:40PM 34.8892 -81.7419 357° North 201 231 19,000  Level Atlanta Center
02:41PM 34.9478 -81.7431 359° North 201 231 19,000  Level Atlanta Center
02:42PM 35.0064 -81.7514 353° North 201 231 19,000  Level Atlanta Center
02:43PM 35.0606 -81.7475 North 201 231 19,000  Level Atlanta Center
02:44PM 35.1189 -81.7508 357° North 201 231 19,000  Level Atlanta Center
02:45PM 35.1753 -81.7494 North 196 226 19,000  Level Atlanta Center
02:46PM 35.2358 -81.7528 357° North 201 231 19,000  Level Atlanta Center
02:47PM 35.2944 -81.7536 359° North 201 231 19,000  Level Atlanta Center
02:48PM 35.3550 -81.7597 355° North 206 237 19,000  Level Atlanta Center
02:49PM 35.4153 -81.7453 11° North 212 244 19,000  Level Atlanta Center
02:50PM 35.4794 -81.7308 10° North 217 250 19,100  Climbing Atlanta Center
02:51PM 35.5400 -81.7214 North 217 250 19,000 -60 Descending Atlanta Center
02:52PM 35.6022 -81.7069 11° North 217 250 19,000  Level Atlanta Center
02:53PM 35.6603 -81.6950 North 217 250 19,000  Level Atlanta Center
02:54PM 35.7186 -81.6856 North 217 250 19,000  Level Atlanta Center
02:55PM 35.7769 -81.6789 North 217 250 19,000  Level Atlanta Center
02:56PM 35.8314 -81.6875 353° North 210 242 19,000  Level Atlanta Center
02:57PM 35.8878 -81.6908 357° North 205 236 19,000  Level Atlanta Center
02:58PM 35.9442 -81.6969 355° North 200 230 19,000  Level Atlanta Center
02:59PM 36.0006 -81.7056 353° North 200 230 19,000  Level Atlanta Center
03:00PM 36.0569 -81.7117 355° North 200 230 19,000  Level Atlanta Center
03:01PM 36.1136 -81.7178 355° North 200 230 19,000  Level Atlanta Center
03:02PM 36.1700 -81.7264 353° North 200 230 19,000  Level Atlanta Center
03:03PM 36.2264 -81.7325 355° North 200 230 19,000  Level Atlanta Center
03:04PM 36.2850 -81.7386 355° North 200 230 19,000  Level Atlanta Center
03:05PM 36.3433 -81.7447 355° North 200 230 19,000  Level Atlanta Center
03:06PM 36.4019 -81.7481 357° North 200 230 19,100  Climbing Atlanta Center
03:07PM 36.4583 -81.7544 355° North 200 230 19,000 -60 Descending Atlanta Center
03:08PM 36.5147 -81.7606 355° North 200 230 19,000  Level Atlanta Center
03:09PM 36.5731 -81.7639 357° North 200 230 19,000  Level Atlanta Center
03:10PM 36.6339 -81.7700 355° North 200 230 19,000  Level Atlanta Center
03:11PM 36.6922 -81.7736 357° North 205 236 19,000  Level Atlanta Center
03:12PM 36.7486 -81.7772 357° North 205 236 19,100  Climbing Atlanta Center
03:13PM 36.8431 -81.7853 356° North 210 242 19,100 -60 Level Indianapolis Center
03:14PM 36.9008 -81.7892 357° North 210 242 19,000 -60 Descending Indianapolis Center
03:15PM 36.9567 -81.7944 356° North 208 239 19,000  Level Indianapolis Center
03:16PM 37.0247 -81.7981 358° North 207 238 19,000  Level Indianapolis Center
03:17PM 37.0822 -81.8019 357° North 207 238 19,000  Level Indianapolis Center
03:19PM 37.1403 -81.8056 357° North 207 238 19,000  Level Indianapolis Center
03:20PM 37.1986 -81.8094 357° North 208 239 19,000  Level Indianapolis Center
03:21PM 37.2564 -81.8161 355° North 208 239 19,000  Level Indianapolis Center
03:22PM 37.3247 -81.8181 359° North 208 239 19,000  Level Indianapolis Center
03:23PM 37.3828 -81.8231 356° North 208 239 19,000  Level Indianapolis Center
03:24PM 37.4386 -81.8256 358° North 206 237 19,000  Level Indianapolis Center
03:25PM 37.4939 -81.8331 354° North 202 232 19,000  Level Indianapolis Center
03:26PM 37.5506 -81.8367 357° North 202 232 19,000  Level Indianapolis Center
03:27PM 37.6069 -81.8431 355° North 202 232 19,000  Level Indianapolis Center
03:28PM 37.6728 -81.8497 355° North 202 232 19,000  Level Indianapolis Center
03:29PM 37.7294 -81.8553 356° North 203 234 19,000  Level Indianapolis Center
03:30PM 37.7844 -81.8583 357° North 202 232 19,000  Level Indianapolis Center
03:31PM 37.8400 -81.8631 356° North 200 230 19,000  Level Indianapolis Center
03:32PM 37.8967 -81.8661 358° North 200 230 19,000  Level Indianapolis Center
03:33PM 37.9525 -81.8714 356° North 201 231 19,000  Level Indianapolis Center
03:34PM 38.0089 -81.8769 356° North 201 231 19,000  Level Indianapolis Center
03:35PM 38.0761 -81.8819 357° North 201 231 19,000  Level Indianapolis Center
03:36PM 38.1325 -81.8869 356° North 201 231 19,000  Level Indianapolis Center
03:37PM 38.1883 -81.8922 356° North 201 231 19,000  Level Indianapolis Center
03:38PM 38.2447 -81.8986 355° North 201 231 19,000  Level Indianapolis Center
03:39PM 38.3011 -81.9014 358° North 201 231 19,000  Level Indianapolis Center
03:40PM 38.3575 -81.9067 356° North 201 231 19,000  Level Indianapolis Center
03:41PM 38.4139 -81.9114 356° North 201 231 19,000  Level Indianapolis Center
03:42PM 38.4811 -81.9183 355° North 201 231 19,000  Level Indianapolis Center
03:43PM 38.5378 -81.9203 358° North 201 231 19,000  Level Indianapolis Center
03:44PM 38.5947 -81.9250 356° North 202 232 19,000  Level Indianapolis Center
03:45PM 38.6517 -81.9264 359° North 202 232 19,000  Level Indianapolis Center
03:46PM 38.7094 -81.9294 358° North 202 232 19,000  Level Indianapolis Center
03:47PM 38.7672 -81.9331 357° North 203 234 19,000  Level Indianapolis Center
03:49PM 38.8236 -81.9361 358° North 203 234 19,000  Level Indianapolis Center
03:50PM 38.8808 -81.9431 355° North 203 234 19,000  Level Indianapolis Center
03:51PM 38.9489 -81.9472 357° North 203 234 19,000  Level Indianapolis Center
03:52PM 39.0039 -81.9544 354° North 202 232 19,000  Level Indianapolis Center
03:53PM 39.0608 -81.9600 356° North 202 232 19,000  Level Indianapolis Center
03:54PM 39.1172 -81.9669 355° North 202 232 19,000  Level Indianapolis Center
03:55PM 39.1736 -81.9706 357° North 202 232 19,000  Level Indianapolis Center
03:56PM 39.2297 -81.9758 356° North 202 232 19,000  Level Indianapolis Center
03:57PM 39.2958 -81.9817 356° North 201 231 19,000  Level Indianapolis Center
03:58PM 39.3514 -81.9881 355° North 201 231 19,000  Level Indianapolis Center
03:59PM 39.4072 -81.9922 357° North 200 230 19,000  Level Indianapolis Center
04:00PM 39.4614 -81.9972 356° North 200 230 19,000  Level Indianapolis Center
04:01PM 39.5164 -82.0056 353° North 200 230 19,000  Level Indianapolis Center
04:02PM 39.5722 -82.0086 358° North 199 229 19,000  Level Indianapolis Center
04:03PM 39.6264 -82.0161 354° North 199 229 19,000  Level Indianapolis Center
04:04PM 39.6919 -82.0214 356° North 199 229 19,000  Level Indianapolis Center
04:05PM 39.7422 -82.0253 357° North 199 229 19,000  Level Indianapolis Center
04:06PM 39.7958 -82.0317 355° North 198 228 19,000  Level Indianapolis Center
04:07PM 39.8522 -82.0269 North 201 231 19,000  Level Indianapolis Center
04:08PM 39.9231 -82.0006 16° North 217 250 19,000  Level Indianapolis Center
04:09PM 39.9800 -81.9833 13° North 216 249 19,000  Level Indianapolis Center
04:10PM 40.0361 -81.9622 16° North 215 247 19,000 -180 Level Indianapolis Center
04:11PM 40.0936 -81.9478 11° North 212 244 18,700 -600 Descending Indianapolis Center
04:12PM 40.1564 -81.9222 17° North 229 264 17,800 -960 Descending Indianapolis Center
04:13PM 40.2328 -81.9000 13° North 235 270 16,700 -1,020 Descending Indianapolis Center
04:14PM 40.2964 -81.8772 15° North 235 270 15,700 -1,020 Descending Indianapolis Center
04:15PM 40.3619 -81.8586 12° North 236 272 14,600 -780 Descending Indianapolis Center
04:16PM 40.4231 -81.8608 358° North 221 254 14,100 -300 Descending Indianapolis Center
04:17PM 40.4750 -81.8744 349° North 195 224 14,100  Level Indianapolis Center
04:19PM 40.5281 -81.8839 352° North 193 222 14,100 -480 Level Indianapolis Center
04:20PM 40.5903 -81.9036 346° North 192 221 13,200 -900 Descending Indianapolis Center
04:21PM 40.6486 -81.9172 350° North 205 236 12,300 -960 Descending Indianapolis Center
04:21PM 40.6783 -81.9281 345° North 206 237 11,700 -960 Descending Cleveland Center
04:22PM 40.7228 -81.9467 342° North 210 242 11,100 -780 Descending Cleveland Center
04:22PM 40.7344 -81.9500 348° North 207 238 10,900 -900 Descending Cleveland Center
04:23PM 40.7797 -81.9642 347° North 211 243 10,200 -1,080 Descending Cleveland Center
04:23PM 40.8031 -81.9700 349° North 211 243 9,800 -840 Descending Cleveland Center
04:24PM 40.8367 -81.9844 342° North 215 247 9,400 -780 Descending Cleveland Center
04:24PM 40.8597 -81.9894 351° North 209 241 9,000 -420 Descending Cleveland Center
04:25PM 40.8917 -82.0047 340° North 204 235 9,000 -120 Level Cleveland Center
04:25PM 40.9122 -82.0128 344° North 198 228 8,900  Descending Cleveland Center
04:26PM 40.9506 -82.0253 346° North 176 203 9,000  Climbing Cleveland Center
04:26PM 40.9603 -82.0303 339° North 183 211 8,900 -1,140 Descending Cleveland Center
04:27PM 40.9981 -82.0556 333° Northwest 194 223 7,900 -1,380 Descending Cleveland Center
04:27PM 41.0092 -82.0597 344° North 190 219 7,500 -1,500 Descending Cleveland Center
04:28PM 41.0433 -82.0878 328° Northwest 220 253 6,700 -1,260 Descending Cleveland Center
04:28PM 41.0625 -82.0997 335° Northwest 211 243 6,200 -1,020 Descending Cleveland Center
04:29PM 41.0864 -82.1200 327° Northwest 218 251 5,800 -780 Descending Cleveland Center
04:29PM 41.1150 -82.1378 335° Northwest 211 243 5,400 -960 Descending Cleveland Center
04:30PM 41.1481 -82.1581 335° Northwest 211 243 4,800 -1,080 Descending Cleveland Center
04:31PM 41.1778 -82.1758 336° Northwest 211 243 4,300 -1,320 Descending Cleveland Center
04:31PM 41.2014 -82.1919 333° Northwest 210 242 3,500 -1,380 Descending Cleveland Center
04:32PM 41.2314 -82.2133 332° Northwest 211 243 2,900 -600 Descending Cleveland Center
04:33PM 41.2853 -82.2497 333° Northwest 214 246 2,600 -240 Descending Cleveland Center
04:34PM 41.3294 -82.2642 346° North 203 234 2,500 -300 Descending Cleveland Center
04:35PM 41.3483 -82.2028 68° East 188 216 2,100 -180 Descending Cleveland Center
04:36PM 41.3792 -82.1625 44° Northeast 166 191 2,200 -300 Climbing Cleveland Center
04:37PM 41.3608 -82.1369 134° Southeast 137 158 1,600 -660 Descending Cleveland Center
04:38PM 41.3456 -82.1775 243° Southwest 123 142 900 -720 Descending Cleveland Center